createdAt,value
2022-10-01T00:01:18.349Z,10.68
2022-10-01T00:03:45.880Z,10.62
2022-10-01T00:06:17.765Z,10.61
2022-10-01T00:08:49.519Z,10.59
2022-10-01T00:11:25.105Z,10.55
2022-10-01T00:13:53.828Z,10.52
2022-10-01T00:16:25.604Z,10.48
2022-10-01T00:18:55.863Z,10.50
2022-10-01T00:21:26.481Z,10.50
2022-10-01T00:23:57.732Z,10.48
2022-10-01T00:26:27.880Z,10.45
2022-10-01T00:28:59.156Z,10.38
2022-10-01T00:31:26.610Z,10.38
2022-10-01T00:33:58.407Z,10.40
2022-10-01T00:36:27.090Z,10.41
2022-10-01T00:38:54.513Z,10.41
2022-10-01T00:41:21.254Z,10.41
2022-10-01T00:43:53.736Z,10.41
2022-10-01T00:46:27.571Z,10.37
2022-10-01T00:49:07.699Z,10.33
2022-10-01T00:51:48.116Z,10.32
2022-10-01T00:54:19.054Z,10.33
2022-10-01T00:56:47.117Z,10.34
2022-10-01T00:59:16.427Z,10.34
2022-10-01T01:01:43.220Z,10.32
2022-10-01T01:04:18.533Z,10.29
2022-10-01T01:06:55.876Z,10.29
2022-10-01T01:09:25.894Z,10.27
2022-10-01T01:12:21.950Z,10.25
2022-10-01T01:15:18.546Z,10.25
2022-10-01T01:18:06.166Z,10.24
2022-10-01T01:21:00.179Z,10.21
2022-10-01T01:23:49.305Z,10.21
2022-10-01T01:26:29.823Z,10.16
2022-10-01T01:29:13.596Z,10.12
2022-10-01T01:31:46.434Z,10.05
2022-10-01T01:34:21.888Z,10.02
2022-10-01T01:36:55.951Z,10.02
2022-10-01T01:39:26.889Z,10.00
2022-10-01T01:41:59.907Z,9.97
2022-10-01T01:44:30.850Z,9.96
2022-10-01T01:47:02.167Z,9.98
2022-10-01T01:49:30.086Z,9.98
2022-10-01T01:52:09.828Z,9.95
2022-10-01T01:54:36.926Z,9.93
2022-10-01T01:57:04.647Z,9.89
2022-10-01T01:59:34.043Z,9.87
2022-10-01T02:02:01.508Z,9.85
2022-10-01T02:04:41.185Z,9.82
2022-10-01T02:07:26.656Z,9.78
2022-10-01T02:10:18.351Z,9.77
2022-10-01T02:13:04.126Z,9.74
2022-10-01T02:15:46.849Z,9.74
2022-10-01T02:18:31.604Z,9.71
2022-10-01T02:21:10.086Z,9.68
2022-10-01T02:23:52.130Z,9.69
2022-10-01T02:26:23.114Z,9.71
2022-10-01T02:28:54.182Z,9.69
2022-10-01T02:31:24.092Z,9.70
2022-10-01T02:33:53.433Z,9.69
2022-10-01T02:36:22.324Z,9.65
2022-10-01T02:38:50.900Z,9.65
2022-10-01T02:41:24.318Z,9.64
2022-10-01T02:43:59.053Z,9.65
2022-10-01T02:46:39.445Z,9.66
2022-10-01T02:49:07.187Z,9.68
2022-10-01T02:51:37.329Z,9.67
2022-10-01T02:54:19.772Z,9.65
2022-10-01T02:57:05.998Z,9.64
2022-10-01T02:59:33.122Z,9.64
2022-10-01T03:01:59.995Z,9.60
2022-10-01T03:04:26.912Z,9.56
2022-10-01T03:06:54.124Z,9.54
2022-10-01T03:09:21.212Z,9.53
2022-10-01T03:11:47.924Z,9.51
2022-10-01T03:14:14.692Z,9.51
2022-10-01T03:16:41.445Z,9.51
2022-10-01T03:19:11.175Z,9.49
2022-10-01T03:21:38.094Z,9.49
2022-10-01T03:24:05.370Z,9.47
2022-10-01T03:26:34.172Z,9.48
2022-10-01T03:29:03.231Z,9.47
2022-10-01T03:31:31.215Z,9.43
2022-10-01T03:34:00.484Z,9.44
2022-10-01T03:36:27.967Z,9.44
2022-10-01T03:38:55.278Z,9.45
2022-10-01T03:41:22.303Z,9.46
2022-10-01T03:43:50.305Z,9.42
2022-10-01T03:46:17.884Z,9.43
2022-10-01T03:48:45.882Z,9.37
2022-10-01T03:51:15.599Z,9.35
2022-10-01T03:53:46.246Z,9.32
2022-10-01T03:56:14.812Z,9.31
2022-10-01T03:58:41.558Z,9.27
2022-10-01T04:01:08.494Z,9.24
2022-10-01T04:03:35.177Z,9.20
2022-10-01T04:06:02.030Z,9.14
2022-10-01T04:08:30.258Z,9.11
2022-10-01T04:10:57.091Z,9.05
2022-10-01T04:13:23.855Z,8.99
2022-10-01T04:15:50.798Z,8.98
2022-10-01T04:18:19.441Z,8.95
2022-10-01T04:20:46.204Z,8.96
2022-10-01T04:23:13.181Z,8.98
2022-10-01T04:25:40.337Z,9.00
2022-10-01T04:28:11.242Z,9.04
2022-10-01T04:30:40.886Z,9.03
2022-10-01T04:33:09.866Z,9.01
2022-10-01T04:35:36.859Z,8.98
2022-10-01T04:38:07.532Z,8.95
2022-10-01T04:40:36.578Z,8.93
2022-10-01T04:43:04.874Z,8.92
2022-10-01T04:45:32.388Z,8.89
2022-10-01T04:47:59.641Z,8.84
2022-10-01T04:50:27.116Z,8.80
2022-10-01T04:52:54.667Z,8.75
2022-10-01T04:55:23.021Z,8.68
2022-10-01T04:57:51.939Z,8.67
2022-10-01T05:00:22.425Z,8.63
2022-10-01T05:02:51.275Z,8.58
2022-10-01T05:05:21.666Z,8.50
2022-10-01T05:07:48.959Z,8.51
2022-10-01T05:10:18.808Z,8.55
2022-10-01T05:12:46.447Z,8.55
2022-10-01T05:15:14.681Z,8.54
2022-10-01T05:17:41.437Z,8.56
2022-10-01T05:20:11.211Z,8.58
2022-10-01T05:22:38.311Z,8.55
2022-10-01T05:25:07.279Z,8.56
2022-10-01T05:27:38.086Z,8.56
2022-10-01T05:30:08.460Z,8.56
2022-10-01T05:32:35.833Z,8.55
2022-10-01T05:35:03.504Z,8.58
2022-10-01T05:37:30.591Z,8.58
2022-10-01T05:39:57.609Z,8.58
2022-10-01T05:42:25.133Z,8.58
2022-10-01T05:44:52.222Z,8.58
2022-10-01T05:47:20.814Z,8.59
2022-10-01T05:49:47.848Z,8.65
2022-10-01T05:52:16.572Z,8.67
2022-10-01T05:54:43.364Z,8.67
2022-10-01T05:57:10.729Z,8.67
2022-10-01T05:59:37.475Z,8.66
2022-10-01T06:02:05.089Z,8.66
2022-10-01T06:04:31.903Z,8.64
2022-10-01T06:06:59.104Z,8.66
2022-10-01T06:09:26.095Z,8.63
2022-10-01T06:11:53.306Z,8.61
2022-10-01T06:14:21.153Z,8.58
2022-10-01T06:16:48.277Z,8.59
2022-10-01T06:19:17.549Z,8.59
2022-10-01T06:21:49.377Z,8.59
2022-10-01T06:24:16.225Z,8.56
2022-10-01T06:26:45.980Z,8.53
2022-10-01T06:29:13.710Z,8.47
2022-10-01T06:32:48.855Z,8.40
2022-10-01T06:35:16.108Z,8.36
2022-10-01T06:37:49.491Z,8.35
2022-10-01T06:40:16.791Z,8.34
2022-10-01T06:42:53.753Z,8.41
2022-10-01T06:45:23.551Z,8.40
2022-10-01T06:47:58.158Z,8.38
2022-10-01T06:50:25.520Z,8.43
2022-10-01T06:52:53.303Z,8.43
2022-10-01T06:55:25.391Z,8.44
2022-10-01T06:58:06.551Z,8.46
2022-10-01T07:00:35.290Z,8.50
2022-10-01T07:03:04.531Z,8.56
2022-10-01T07:05:31.459Z,8.63
2022-10-01T07:07:58.132Z,8.72
2022-10-01T07:10:25.496Z,8.80
2022-10-01T07:12:52.184Z,8.87
2022-10-01T07:15:22.808Z,8.94
2022-10-01T07:17:51.001Z,9.01
2022-10-01T07:20:20.198Z,9.08
2022-10-01T07:22:48.443Z,9.14
2022-10-01T07:25:15.577Z,9.21
2022-10-01T07:27:42.278Z,9.27
2022-10-01T07:30:09.370Z,9.33
2022-10-01T07:32:36.714Z,9.40
2022-10-01T07:35:05.296Z,9.49
2022-10-01T07:37:32.125Z,9.55
2022-10-01T07:40:08.951Z,9.62
2022-10-01T07:45:44.892Z,9.78
2022-10-01T07:48:40.967Z,9.87
2022-10-01T07:51:17.375Z,9.94
2022-10-01T07:54:02.014Z,10.03
2022-10-01T07:56:47.258Z,10.12
2022-10-01T07:59:36.789Z,10.23
2022-10-01T08:02:22.177Z,10.30
2022-10-01T08:05:09.971Z,10.43
2022-10-01T08:10:26.293Z,10.65
2022-10-01T08:12:59.995Z,10.77
2022-10-01T08:15:27.327Z,10.85
2022-10-01T08:17:55.328Z,10.95
2022-10-01T08:20:22.062Z,10.98
2022-10-01T08:22:49.141Z,11.06
2022-10-01T08:25:17.791Z,11.13
2022-10-01T08:27:48.495Z,11.22
2022-10-01T08:30:18.156Z,11.30
2022-10-01T08:33:00.281Z,11.34
2022-10-01T08:35:36.134Z,11.39
2022-10-01T08:38:05.163Z,11.42
2022-10-01T08:40:41.352Z,11.50
2022-10-01T08:43:17.476Z,11.56
2022-10-01T08:45:51.592Z,11.62
2022-10-01T08:48:56.900Z,11.65
2022-10-01T08:51:32.967Z,11.75
2022-10-01T08:54:21.752Z,11.79
2022-10-01T08:56:48.601Z,11.83
2022-10-01T08:59:35.261Z,11.92
2022-10-01T09:02:02.172Z,12.00
2022-10-01T09:04:31.039Z,12.04
2022-10-01T09:07:13.452Z,12.15
2022-10-01T09:09:50.081Z,12.23
2022-10-01T09:12:38.450Z,12.24
2022-10-01T09:15:38.513Z,12.28
2022-10-01T09:18:22.491Z,12.36
2022-10-01T09:20:54.936Z,12.40
2022-10-01T09:23:29.520Z,12.43
2022-10-01T09:26:00.007Z,12.52
2022-10-01T09:28:33.497Z,12.57
2022-10-01T09:31:16.614Z,12.62
2022-10-01T09:33:54.479Z,12.70
2022-10-01T09:36:30.219Z,12.75
2022-10-01T09:39:33.496Z,12.76
2022-10-01T09:42:00.370Z,12.81
2022-10-01T09:44:30.279Z,12.91
2022-10-01T09:46:56.935Z,12.93
2022-10-01T09:49:35.072Z,12.95
2022-10-01T09:52:06.320Z,13.01
2022-10-01T09:54:43.286Z,13.07
2022-10-01T09:57:13.220Z,13.07
2022-10-01T09:59:57.266Z,13.12
2022-10-01T10:02:44.586Z,13.18
2022-10-01T10:05:18.418Z,13.14
2022-10-01T10:07:52.466Z,13.21
2022-10-01T10:10:26.057Z,13.20
2022-10-01T10:12:59.188Z,13.35
2022-10-01T10:15:26.436Z,13.47
2022-10-01T10:17:54.509Z,13.57
2022-10-01T10:20:38.224Z,13.64
2022-10-01T10:23:19.577Z,13.69
2022-10-01T10:26:03.413Z,13.73
2022-10-01T10:28:43.810Z,13.77
2022-10-01T10:31:16.606Z,13.82
2022-10-01T10:34:01.474Z,13.88
2022-10-01T10:36:36.197Z,13.94
2022-10-01T10:39:06.375Z,14.01
2022-10-01T10:41:34.603Z,14.08
2022-10-01T10:44:04.991Z,14.22
2022-10-01T10:46:38.601Z,14.35
2022-10-01T10:49:16.319Z,14.43
2022-10-01T10:51:51.412Z,14.41
2022-10-01T10:54:28.558Z,14.42
2022-10-01T11:00:20.223Z,14.50
2022-10-01T11:03:00.889Z,14.49
2022-10-01T11:05:32.124Z,14.49
2022-10-01T11:08:06.790Z,14.48
2022-10-01T11:10:45.733Z,14.49
2022-10-01T11:13:34.347Z,14.53
2022-10-01T11:16:28.047Z,14.68
2022-10-01T11:19:13.407Z,14.73
2022-10-01T11:22:05.558Z,14.69
2022-10-01T11:24:46.176Z,14.66
2022-10-01T11:27:16.804Z,14.85
2022-10-01T11:29:58.363Z,14.91
2022-10-01T11:32:44.477Z,15.01
2022-10-01T11:35:23.388Z,15.03
2022-10-01T11:37:57.940Z,15.09
2022-10-01T11:40:32.507Z,15.12
2022-10-01T11:43:12.268Z,15.02
2022-10-01T11:45:47.344Z,14.94
2022-10-01T11:48:24.592Z,14.90
2022-10-01T11:50:56.253Z,14.75
2022-10-01T11:53:46.534Z,14.83
2022-10-01T11:57:02.048Z,14.90
2022-10-01T11:59:53.504Z,14.93
2022-10-01T12:02:45.316Z,14.81
2022-10-01T12:05:29.166Z,14.98
2022-10-01T12:08:30.108Z,15.18
2022-10-01T12:11:06.719Z,15.37
2022-10-01T12:13:40.277Z,15.44
2022-10-01T12:16:28.482Z,15.48
2022-10-01T12:19:21.591Z,15.54
2022-10-01T12:22:10.628Z,15.57
2022-10-01T12:24:46.069Z,15.58
2022-10-01T12:27:29.422Z,15.75
2022-10-01T12:30:03.257Z,15.86
2022-10-01T12:33:07.497Z,15.88
2022-10-01T12:35:58.014Z,15.90
2022-10-01T12:38:48.974Z,15.78
2022-10-01T12:41:43.782Z,15.76
2022-10-01T12:44:22.469Z,15.78
2022-10-01T12:46:59.485Z,15.83
2022-10-01T12:49:45.461Z,15.80
2022-10-01T12:58:54.090Z,15.67
2022-10-01T13:04:47.350Z,15.51
2022-10-01T13:07:49.108Z,15.44
2022-10-01T13:10:25.723Z,15.54
2022-10-01T13:13:19.093Z,15.51
2022-10-01T13:15:49.725Z,15.45
2022-10-01T13:18:35.938Z,15.28
2022-10-01T13:21:32.722Z,15.19
2022-10-01T13:24:16.943Z,15.42
2022-10-01T13:26:57.919Z,15.56
2022-10-01T13:29:45.211Z,15.58
2022-10-01T13:32:34.002Z,15.50
2022-10-01T13:35:21.404Z,15.47
2022-10-01T13:37:48.200Z,15.43
2022-10-01T13:40:23.007Z,15.42
2022-10-01T13:42:52.107Z,15.42
2022-10-01T13:45:31.393Z,15.39
2022-10-01T13:48:15.263Z,15.37
2022-10-01T13:51:04.439Z,15.38
2022-10-01T13:53:38.375Z,15.40
2022-10-01T13:56:05.531Z,15.41
2022-10-01T13:58:44.119Z,15.40
2022-10-01T14:01:23.553Z,15.47
2022-10-01T14:03:53.695Z,15.50
2022-10-01T14:06:36.025Z,15.46
2022-10-01T14:09:15.267Z,15.58
2022-10-01T14:12:04.566Z,15.53
2022-10-01T14:14:55.449Z,15.52
2022-10-01T14:17:25.843Z,15.54
2022-10-01T14:19:53.092Z,15.48
2022-10-01T14:22:50.304Z,15.57
2022-10-01T14:25:23.327Z,15.59
2022-10-01T14:28:34.843Z,15.69
2022-10-01T14:31:24.679Z,15.70
2022-10-01T14:34:12.781Z,15.72
2022-10-01T14:36:45.354Z,15.62
2022-10-01T14:39:22.463Z,15.46
2022-10-01T14:41:51.716Z,15.43
2022-10-01T14:44:27.553Z,15.41
2022-10-01T14:46:56.646Z,15.31
2022-10-01T14:49:26.802Z,15.35
2022-10-01T14:52:26.043Z,15.41
2022-10-01T14:55:02.732Z,15.61
2022-10-01T14:57:39.252Z,15.76
2022-10-01T15:00:15.909Z,15.85
2022-10-01T15:02:51.929Z,16.01
2022-10-01T15:05:33.149Z,16.19
2022-10-01T15:08:28.472Z,16.36
2022-10-01T15:10:59.251Z,16.30
2022-10-01T15:13:35.427Z,16.35
2022-10-01T15:16:03.113Z,16.37
2022-10-01T15:18:31.818Z,16.39
2022-10-01T15:21:05.562Z,16.28
2022-10-01T15:23:36.851Z,16.21
2022-10-01T15:26:09.381Z,16.18
2022-10-01T15:28:36.954Z,15.99
2022-10-01T15:31:06.999Z,15.96
2022-10-01T15:33:43.315Z,15.92
2022-10-01T15:36:18.565Z,15.78
2022-10-01T15:38:46.848Z,15.75
2022-10-01T15:41:33.364Z,15.72
2022-10-01T15:44:05.673Z,15.55
2022-10-01T15:46:35.162Z,15.63
2022-10-01T15:49:20.065Z,15.63
2022-10-01T15:52:20.226Z,15.51
2022-10-01T15:54:48.570Z,15.48
2022-10-01T16:00:02.608Z,15.30
2022-10-01T16:02:31.714Z,15.21
2022-10-01T16:05:09.118Z,15.22
2022-10-01T16:07:36.565Z,15.21
2022-10-01T16:10:16.121Z,15.11
2022-10-01T16:12:42.908Z,15.05
2022-10-01T16:15:28.209Z,15.10
2022-10-01T16:18:00.785Z,15.01
2022-10-01T16:20:45.633Z,15.08
2022-10-01T16:23:34.229Z,15.09
2022-10-01T16:26:01.891Z,15.06
2022-10-01T16:28:36.656Z,15.02
2022-10-01T16:31:06.232Z,15.00
2022-10-01T16:33:37.279Z,15.01
2022-10-01T16:38:51.464Z,14.93
2022-10-01T16:41:27.048Z,14.88
2022-10-01T16:43:57.093Z,14.85
2022-10-01T16:46:23.855Z,14.75
2022-10-01T16:48:54.797Z,14.70
2022-10-01T16:51:22.038Z,14.67
2022-10-01T16:53:50.030Z,14.65
2022-10-01T16:56:17.540Z,14.64
2022-10-01T16:58:54.515Z,14.61
2022-10-01T17:01:23.320Z,14.59
2022-10-01T17:03:51.368Z,14.60
2022-10-01T17:06:18.112Z,14.56
2022-10-01T17:08:44.946Z,14.52
2022-10-01T17:11:12.705Z,14.49
2022-10-01T17:13:39.670Z,14.46
2022-10-01T17:16:06.607Z,14.43
2022-10-01T17:18:33.719Z,14.39
2022-10-01T17:21:04.439Z,14.34
2022-10-01T17:23:31.148Z,14.27
2022-10-01T17:25:57.770Z,14.15
2022-10-01T17:28:24.646Z,14.10
2022-10-01T17:30:51.404Z,14.00
2022-10-01T17:33:20.429Z,13.91
2022-10-01T17:35:52.051Z,13.90
2022-10-01T17:38:19.637Z,13.85
2022-10-01T17:40:46.824Z,13.80
2022-10-01T17:43:15.969Z,13.73
2022-10-01T17:45:43.459Z,13.65
2022-10-01T17:48:10.489Z,13.60
2022-10-01T17:50:43.764Z,13.55
2022-10-01T17:53:11.867Z,13.52
2022-10-01T17:55:41.321Z,13.49
2022-10-01T18:00:49.068Z,13.33
2022-10-01T18:03:18.248Z,13.27
2022-10-01T18:05:45.415Z,13.27
2022-10-01T18:08:12.785Z,13.28
2022-10-01T18:10:39.727Z,13.28
2022-10-01T18:13:06.487Z,13.24
2022-10-01T18:15:33.592Z,13.15
2022-10-01T18:20:46.905Z,13.06
2022-10-01T18:23:14.024Z,13.05
2022-10-01T18:25:40.651Z,13.01
2022-10-01T18:28:07.489Z,12.92
2022-10-01T18:30:34.176Z,12.84
2022-10-01T18:33:02.651Z,12.88
2022-10-01T18:35:34.806Z,12.83
2022-10-01T18:38:25.913Z,12.89
2022-10-01T18:41:00.004Z,12.93
2022-10-01T18:43:27.107Z,12.95
2022-10-01T18:46:23.047Z,12.95
2022-10-01T18:49:14.734Z,12.92
2022-10-01T18:52:05.628Z,12.91
2022-10-01T18:54:49.684Z,12.91
2022-10-01T18:57:38.099Z,12.92
2022-10-01T19:00:18.409Z,12.90
2022-10-01T19:02:56.743Z,12.87
2022-10-01T19:05:49.786Z,12.87
2022-10-01T19:08:38.308Z,12.76
2022-10-01T19:11:20.803Z,12.73
2022-10-01T19:14:22.420Z,12.69
2022-10-01T19:17:06.662Z,12.66
2022-10-01T19:20:11.627Z,12.59
2022-10-01T19:23:15.825Z,12.56
2022-10-01T19:25:55.572Z,12.54
2022-10-01T19:28:41.154Z,12.50
2022-10-01T19:31:36.934Z,12.50
2022-10-01T19:34:16.940Z,12.48
2022-10-01T19:36:52.247Z,12.52
2022-10-01T19:39:31.189Z,12.47
2022-10-01T19:42:03.643Z,12.42
2022-10-01T19:44:54.385Z,12.38
2022-10-01T19:47:45.935Z,12.36
2022-10-01T19:50:29.314Z,12.37
2022-10-01T19:52:58.434Z,12.39
2022-10-01T19:55:26.648Z,12.38
2022-10-01T19:57:53.467Z,12.40
2022-10-01T20:00:23.128Z,12.44
2022-10-01T20:03:07.137Z,12.48
2022-10-01T20:05:52.986Z,12.50
2022-10-01T20:08:33.845Z,12.55
2022-10-01T20:11:03.321Z,12.59
2022-10-01T20:13:40.116Z,12.61
2022-10-01T20:16:15.197Z,12.65
2022-10-01T20:19:14.149Z,12.67
2022-10-01T20:21:43.954Z,12.67
2022-10-01T20:24:52.193Z,12.70
2022-10-01T20:27:40.461Z,12.72
2022-10-01T20:30:21.486Z,12.72
2022-10-01T20:33:13.929Z,12.71
2022-10-01T20:36:19.224Z,12.74
2022-10-01T20:38:54.331Z,12.77
2022-10-01T20:41:23.590Z,12.79
2022-10-01T20:43:55.625Z,12.78
2022-10-01T20:46:35.918Z,12.78
2022-10-01T20:49:11.076Z,12.79
2022-10-01T20:51:46.996Z,12.79
2022-10-01T20:54:23.181Z,12.81
2022-10-01T20:57:21.435Z,12.84
2022-10-01T20:59:55.486Z,12.83
2022-10-01T21:02:31.229Z,12.83
2022-10-01T21:05:08.522Z,12.85
2022-10-01T21:08:00.745Z,12.86
2022-10-01T21:10:40.440Z,12.85
2022-10-01T21:13:17.470Z,12.83
2022-10-01T21:15:59.407Z,12.82
2022-10-01T21:18:44.462Z,12.82
2022-10-01T21:21:29.585Z,12.82
2022-10-01T21:24:33.944Z,12.78
2022-10-01T21:27:24.041Z,12.77
2022-10-01T21:30:17.685Z,12.75
2022-10-01T21:33:19.836Z,12.72
2022-10-01T21:36:15.979Z,12.65
2022-10-01T21:38:56.234Z,12.59
2022-10-01T21:41:34.996Z,12.51
2022-10-01T21:44:11.421Z,12.41
2022-10-01T21:46:55.431Z,12.38
2022-10-01T21:49:35.627Z,12.33
2022-10-01T21:52:10.907Z,12.24
2022-10-01T21:54:50.737Z,12.21
2022-10-01T21:57:36.190Z,12.13
2022-10-01T22:00:16.552Z,12.07
2022-10-01T22:03:27.052Z,12.03
2022-10-01T22:06:03.518Z,11.96
2022-10-01T22:08:45.528Z,11.89
2022-10-01T22:11:35.213Z,11.89
2022-10-01T22:14:04.999Z,11.87
2022-10-01T22:16:50.213Z,11.86
2022-10-01T22:19:23.231Z,11.82
2022-10-01T22:21:56.378Z,11.79
2022-10-01T22:24:31.085Z,11.75
2022-10-01T22:27:10.425Z,11.76
2022-10-01T22:29:44.088Z,11.76
2022-10-01T22:32:13.851Z,11.73
2022-10-01T22:34:49.457Z,11.67
2022-10-01T22:37:28.018Z,11.65
2022-10-01T22:40:03.512Z,11.62
2022-10-01T22:42:38.341Z,11.57
2022-10-01T22:45:17.016Z,11.54
2022-10-01T22:47:50.683Z,11.55
2022-10-01T22:50:42.020Z,11.54
2022-10-01T22:53:19.562Z,11.49
2022-10-01T22:55:54.644Z,11.49
2022-10-01T22:58:30.359Z,11.50
2022-10-01T23:01:06.195Z,11.47
2022-10-01T23:04:04.371Z,11.46
2022-10-01T23:06:43.398Z,11.41
2022-10-01T23:09:18.615Z,11.35
2022-10-01T23:12:17.625Z,11.36
2022-10-01T23:15:12.603Z,11.38
2022-10-01T23:18:10.681Z,11.39
2022-10-01T23:20:40.660Z,11.41
2022-10-01T23:23:33.202Z,11.40
2022-10-01T23:26:35.848Z,11.33
2022-10-01T23:29:08.736Z,11.33
2022-10-01T23:31:55.193Z,11.33
2022-10-01T23:34:35.455Z,11.28
2022-10-01T23:37:02.047Z,11.28
2022-10-01T23:40:07.713Z,11.25
2022-10-01T23:42:43.770Z,11.24
2022-10-01T23:45:22.923Z,11.23
2022-10-01T23:47:58.830Z,11.24
2022-10-01T23:50:48.170Z,11.20
2022-10-01T23:53:20.389Z,11.23
2022-10-01T23:56:16.020Z,11.22
2022-10-01T23:58:54.683Z,11.21
